createdAt,value
2023-02-19T00:03:08.791Z,7.7
2023-02-19T00:13:08.774Z,7.6
2023-02-19T00:23:08.744Z,7.6
2023-02-19T00:33:09.141Z,7.5
2023-02-19T00:43:08.744Z,7.3
2023-02-19T00:53:08.734Z,7.3
2023-02-19T01:03:08.717Z,7.2
2023-02-19T01:13:09.109Z,7.1
2023-02-19T01:23:08.692Z,6.9
2023-02-19T01:33:08.661Z,6.5
2023-02-19T01:43:08.662Z,6.5
2023-02-19T01:53:08.641Z,6.2
2023-02-19T02:03:08.644Z,6.2
2023-02-19T02:13:08.639Z,6.1
2023-02-19T02:23:08.631Z,6.2
2023-02-19T02:33:08.603Z,6.3
2023-02-19T02:43:08.604Z,6.3
2023-02-19T02:53:08.595Z,6.4
2023-02-19T03:03:09.005Z,6.3
2023-02-19T03:13:08.984Z,6.2
2023-02-19T03:23:08.584Z,6
2023-02-19T03:33:08.585Z,5.8
2023-02-19T03:43:08.553Z,5.8
2023-02-19T03:53:08.529Z,5.7
2023-02-19T04:03:08.550Z,5.6
2023-02-19T04:13:08.521Z,5.6
2023-02-19T04:23:08.526Z,5.5
2023-02-19T04:33:08.497Z,5.4
2023-02-19T04:43:08.498Z,5.3
2023-02-19T04:53:08.497Z,5.2
2023-02-19T05:03:08.493Z,5.2
2023-02-19T05:13:08.483Z,5.3
2023-02-19T05:23:08.467Z,5.3
2023-02-19T05:33:08.472Z,5.3
2023-02-19T05:43:08.448Z,5
2023-02-19T05:53:08.438Z,4.8
2023-02-19T06:03:08.442Z,4.8
2023-02-19T06:13:08.428Z,5
2023-02-19T06:23:08.430Z,4.7
2023-02-19T06:33:08.854Z,4.6
2023-02-19T06:43:08.432Z,4.7
2023-02-19T06:53:08.843Z,4.5
2023-02-19T07:03:08.378Z,4.4
2023-02-19T07:13:08.391Z,4.4
2023-02-19T07:23:08.384Z,4.5
2023-02-19T07:33:10.465Z,6.3
2023-02-19T07:43:08.359Z,8.1
2023-02-19T07:53:08.329Z,9.6
2023-02-19T08:03:08.348Z,10.2
2023-02-19T08:13:08.312Z,10.6
2023-02-19T08:23:08.298Z,12
2023-02-19T08:33:08.303Z,14.5
2023-02-19T08:43:08.300Z,15.8
2023-02-19T08:53:08.244Z,15.2
2023-02-19T09:03:08.254Z,14.7
2023-02-19T09:13:08.209Z,14.3
2023-02-19T09:23:10.125Z,14.2
2023-02-19T09:33:08.638Z,13.2
2023-02-19T09:43:08.177Z,12.1
2023-02-19T09:53:08.166Z,12.8
2023-02-19T10:03:08.164Z,12.5
2023-02-19T10:13:08.134Z,13.9
2023-02-19T10:23:08.157Z,15.2
2023-02-19T10:33:08.553Z,15.2
2023-02-19T10:43:08.106Z,15.2
2023-02-19T10:53:08.114Z,16.7
2023-02-19T11:03:08.068Z,18.4
2023-02-19T11:13:08.047Z,19.9
2023-02-19T11:23:08.013Z,20.7
2023-02-19T11:33:08.004Z,21
2023-02-19T11:43:08.005Z,22.5
2023-02-19T11:53:08.397Z,21.9
2023-02-19T12:03:07.970Z,20.3
2023-02-19T12:13:07.943Z,19.6
2023-02-19T12:23:07.913Z,19
2023-02-19T12:33:07.913Z,19
2023-02-19T12:43:07.892Z,20.1
2023-02-19T12:53:07.896Z,21
2023-02-19T13:03:08.304Z,18.4
2023-02-19T13:13:07.824Z,17.9
2023-02-19T13:23:07.825Z,16.7
2023-02-19T13:33:07.832Z,16.1
2023-02-19T13:43:07.826Z,15.7
2023-02-19T13:53:07.769Z,15.6
2023-02-19T14:03:07.771Z,14.6
2023-02-19T14:13:07.760Z,13.8
2023-02-19T14:23:07.738Z,13.5
2023-02-19T14:33:10.949Z,13.3
2023-02-19T14:43:07.702Z,13.1
2023-02-19T14:53:07.692Z,12.9
2023-02-19T15:03:07.684Z,12.9
2023-02-19T15:13:07.664Z,12.8
2023-02-19T15:23:07.650Z,13.1
2023-02-19T15:33:07.638Z,13.3
2023-02-19T15:43:08.061Z,13.5
2023-02-19T15:53:07.632Z,13.5
2023-02-19T16:03:07.644Z,13.3
2023-02-19T16:13:07.583Z,12.4
2023-02-19T16:23:07.581Z,11.9
2023-02-19T16:33:07.971Z,11.6
2023-02-19T16:43:07.563Z,11.5
2023-02-19T16:53:07.544Z,11.3
2023-02-19T17:03:07.517Z,11.1
2023-02-19T17:13:07.500Z,11.1
2023-02-19T17:23:07.479Z,11.1
2023-02-19T17:33:07.473Z,11.1
2023-02-19T17:43:07.455Z,11
2023-02-19T17:53:07.458Z,11
2023-02-19T18:03:07.472Z,10.9
2023-02-19T18:13:07.434Z,10.9
2023-02-19T18:23:07.414Z,10.9
2023-02-19T18:33:07.408Z,10.9
2023-02-19T18:43:07.406Z,10.8
2023-02-19T18:53:07.362Z,10.7
2023-02-19T19:03:07.781Z,10.7
2023-02-19T19:13:07.368Z,10.6
2023-02-19T19:23:07.355Z,10.7
2023-02-19T19:33:07.322Z,10.7
2023-02-19T19:43:07.743Z,10.7
2023-02-19T19:53:07.300Z,10.7
2023-02-19T20:03:07.286Z,10.7
2023-02-19T20:13:07.306Z,10.7
2023-02-19T20:23:07.257Z,10.6
2023-02-19T20:33:07.258Z,10.6
2023-02-19T20:43:07.242Z,10.6
2023-02-19T20:53:07.656Z,10.6
2023-02-19T21:03:07.290Z,10.6
2023-02-19T21:13:07.222Z,10.5
2023-02-19T21:23:07.209Z,10.4
2023-02-19T21:33:07.174Z,10.5
2023-02-19T21:43:07.180Z,10.4
2023-02-19T21:53:07.156Z,10.4
2023-02-19T22:03:07.187Z,10.2
2023-02-19T22:13:07.126Z,10.2
2023-02-19T22:23:07.527Z,10.2
2023-02-19T22:33:07.166Z,10.2
2023-02-19T22:43:07.084Z,10.1
2023-02-19T22:53:07.102Z,10.1
2023-02-19T23:03:07.474Z,9.9
2023-02-19T23:13:08.973Z,9.7
2023-02-19T23:23:07.052Z,9.6
2023-02-19T23:33:07.045Z,9.4
2023-02-19T23:43:07.020Z,9.2
2023-02-19T23:53:07.035Z,9.2
